Time;durP1;ratioP1;P1;durP2;ratioP2;P2;SDS_P1;SDS_P2;PMS_P1;PMS_P2;Temp;Humidity;BMP_temperature;BMP_pressure;BME280_temperature;BME280_humidity;BME280_pressure;Samples;Min_cycle;Max_cycle;Signal;HPM_P1;HPM_P2
2021/10/20 00:00:58;;;;;;;47.73;27.27;;;;;;;2.47;65.36;101363.47;1647307;84;21273;-58
2021/10/20 00:03:24;;;;;;;48.90;28.02;;;;;;;2.52;65.45;101367.90;1649430;85;21059;-56
2021/10/20 00:05:50;;;;;;;41.20;25.75;;;;;;;2.55;65.18;101370.32;1634316;85;21063;-57
2021/10/20 00:08:16;;;;;;;52.53;27.62;;;;;;;2.51;65.06;101368.86;1640274;85;21250;-58
2021/10/20 00:10:42;;;;;;;45.28;27.98;;;;;;;2.48;65.11;101374.34;1609556;87;21079;-57
2021/10/20 00:13:08;;;;;;;49.70;26.42;;;;;;;2.44;65.20;101377.66;1610961;87;21088;-56
2021/10/20 00:15:35;;;;;;;50.28;30.90;;;;;;;2.44;65.22;101376.34;1617906;87;21056;-57
2021/10/20 00:18:01;;;;;;;49.93;29.77;;;;;;;2.36;65.21;101368.17;1605213;87;21109;-57
2021/10/20 00:20:28;;;;;;;52.65;30.05;;;;;;;2.32;65.38;101361.45;1621039;87;21051;-57
2021/10/20 00:22:55;;;;;;;58.80;35.00;;;;;;;2.34;65.45;101354.29;1628477;85;21283;-57
2021/10/20 00:25:22;;;;;;;60.10;32.03;;;;;;;2.43;65.50;101347.50;1656945;85;21106;-56
2021/10/20 00:27:48;;;;;;;69.15;39.58;;;;;;;2.48;65.61;101345.39;1636126;85;21061;-56
2021/10/20 00:30:16;;;;;;;60.78;34.98;;;;;;;2.47;65.84;101343.24;1649348;85;21794;-55
2021/10/20 00:32:44;;;;;;;57.80;36.17;;;;;;;2.49;65.99;101345.28;1633928;85;21164;-59
2021/10/20 00:35:10;;;;;;;60.53;36.20;;;;;;;2.51;66.00;101343.38;1654288;85;21149;-56
2021/10/20 00:37:37;;;;;;;67.83;36.93;;;;;;;2.53;65.88;101338.01;1646145;85;21308;-57
2021/10/20 00:40:05;;;;;;;68.17;39.23;;;;;;;2.52;65.82;101330.59;1647546;85;21930;-57
2021/10/20 00:42:33;;;;;;;65.80;38.50;;;;;;;2.52;65.94;101333.69;1636999;85;21053;-56
2021/10/20 00:45:01;;;;;;;75.80;40.90;;;;;;;2.52;66.01;101334.55;1643306;83;21813;-59
2021/10/20 00:47:28;;;;;;;76.87;43.30;;;;;;;2.53;66.21;101336.21;1632089;85;21415;-57
2021/10/20 00:49:55;;;;;;;73.30;44.20;;;;;;;2.55;66.29;101338.73;1656901;85;21112;-57
2021/10/20 00:52:26;;;;;;;75.53;43.37;;;;;;;2.57;66.39;101336.00;1653725;85;21017;-58
2021/10/20 00:54:54;;;;;;;73.03;42.60;;;;;;;2.58;66.62;101327.13;1640678;85;21478;-58
2021/10/20 00:57:23;;;;;;;72.93;42.93;;;;;;;2.62;66.68;101331.22;1646718;82;21073;-57
2021/10/20 00:59:50;;;;;;;70.33;41.97;;;;;;;2.61;66.68;101340.91;1648150;85;21287;-57
2021/10/20 01:02:16;;;;;;;66.77;40.53;;;;;;;2.62;66.52;101333.84;1645116;85;21755;-58
2021/10/20 01:04:43;;;;;;;74.30;43.58;;;;;;;2.67;66.33;101334.36;1615136;86;21312;-57
2021/10/20 01:07:08;;;;;;;;;;;;;;;2.73;66.17;101339.16;1657824;86;21065;-59
2021/10/20 01:09:35;;;;;;;64.40;38.93;;;;;;;2.71;66.19;101341.07;1666990;85;20191;-58
2021/10/20 01:12:02;;;;;;;71.53;41.33;;;;;;;2.60;66.36;101339.70;1646651;85;21268;-57
2021/10/20 01:14:30;;;;;;;65.00;40.57;;;;;;;2.52;66.34;101342.44;1640523;87;21153;-60
2021/10/20 01:16:57;;;;;;;69.03;40.38;;;;;;;2.46;66.45;101336.77;1657505;85;21137;-59
2021/10/20 01:19:24;;;;;;;72.30;43.07;;;;;;;2.41;66.60;101336.25;1673361;85;21801;-57
2021/10/20 01:21:52;;;;;;;70.75;43.70;;;;;;;2.34;66.73;101327.98;1672016;85;21079;-57
2021/10/20 01:24:22;;;;;;;70.67;45.03;;;;;;;2.33;66.90;101328.91;1658319;84;21072;-59
2021/10/20 01:26:54;;;;;;;64.63;41.07;;;;;;;2.31;67.05;101326.39;1646357;85;21109;-58
2021/10/20 01:29:21;;;;;;;63.83;41.37;;;;;;;2.27;67.14;101320.98;1655598;85;21077;-59
2021/10/20 01:31:56;;;;;;;;;;;;;;;2.25;67.08;101318.11;1648564;85;21444;-59
2021/10/20 01:34:23;;;;;;;66.30;39.00;;;;;;;2.19;67.23;101322.51;1636467;84;20699;-57
2021/10/20 01:36:52;;;;;;;67.63;41.53;;;;;;;2.13;67.59;101312.78;1641615;85;21828;-58
2021/10/20 01:39:20;;;;;;;75.67;40.07;;;;;;;2.13;67.63;101315.41;1646349;85;21032;-58
2021/10/20 01:41:48;;;;;;;65.57;40.20;;;;;;;2.14;67.62;101323.65;1647126;85;21856;-58
2021/10/20 01:44:15;;;;;;;65.53;40.10;;;;;;;2.20;67.54;101317.59;1635946;85;21241;-56
2021/10/20 01:46:41;;;;;;;57.25;37.67;;;;;;;2.25;67.41;101324.69;1657936;84;21579;-58
2021/10/20 01:49:07;;;;;;;74.27;41.90;;;;;;;2.20;67.48;101308.39;1659691;84;21934;-57
2021/10/20 01:51:34;;;;;;;68.52;40.28;;;;;;;2.25;67.70;101322.06;1663409;84;21021;-56
2021/10/20 01:54:00;;;;;;;68.30;41.65;;;;;;;2.25;67.76;101321.58;1659598;84;22556;-58
2021/10/20 01:56:26;;;;;;;56.92;38.60;;;;;;;2.28;67.80;101319.19;1654815;84;20996;-59
2021/10/20 01:58:52;;;;;;;62.27;38.00;;;;;;;2.29;67.68;101323.52;1649885;84;21814;-57
2021/10/20 02:01:18;;;;;;;69.60;40.23;;;;;;;2.23;67.62;101319.53;1665137;84;21049;-58
2021/10/20 02:03:45;;;;;;;62.35;39.78;;;;;;;2.31;67.51;101329.02;1657463;84;21886;-57
2021/10/20 02:06:14;;;;;;;;;;;;;;;2.29;67.44;101323.52;1666696;84;21033;-58
2021/10/20 02:08:41;;;;;;;60.23;38.00;;;;;;;2.28;67.52;101325.77;1653326;84;20184;-58
2021/10/20 02:11:08;;;;;;;62.17;38.47;;;;;;;2.19;67.60;101328.59;1658623;84;21080;-59
2021/10/20 02:13:35;;;;;;;57.33;37.87;;;;;;;2.18;67.63;101328.22;1655101;84;21123;-57
2021/10/20 02:16:03;;;;;;;58.63;37.25;;;;;;;2.16;67.50;101325.34;1665826;84;21291;-57
2021/10/20 02:18:30;;;;;;;61.90;38.60;;;;;;;2.08;67.48;101329.35;1664646;84;21887;-57
2021/10/20 02:20:57;;;;;;;62.43;39.35;;;;;;;2.03;67.54;101324.89;1655153;84;21793;-62
2021/10/20 02:23:23;;;;;;;;;;;;;;;1.78;67.71;101292.09;1650054;84;21772;-58
2021/10/20 02:25:49;;;;;;;59.00;37.07;;;;;;;1.90;67.91;101319.67;1665019;84;20535;-59
2021/10/20 02:28:16;;;;;;;64.32;38.38;;;;;;;1.81;68.38;101317.69;1655670;84;21084;-57
2021/10/20 02:30:42;;;;;;;;;;;;;;;1.85;68.53;101325.72;1663869;84;21112;-57
2021/10/20 02:33:10;;;;;;;58.17;35.70;;;;;;;1.80;68.68;101317.80;1659056;84;20657;-58
2021/10/20 02:35:37;;;;;;;64.87;35.03;;;;;;;1.87;68.67;101329.56;1653316;84;21156;-57
2021/10/20 02:38:04;;;;;;;53.50;36.17;;;;;;;1.97;68.71;101331.07;1666309;84;21037;-59
2021/10/20 02:40:30;;;;;;;54.05;33.88;;;;;;;2.04;68.67;101333.16;1658330;84;21072;-56
2021/10/20 02:42:56;;;;;;;54.95;35.83;;;;;;;2.05;68.94;101327.41;1641618;85;21097;-59
2021/10/20 02:45:23;;;;;;;52.75;34.53;;;;;;;2.04;69.02;101329.21;1643180;85;21025;-57
2021/10/20 02:47:49;;;;;;;60.38;35.58;;;;;;;2.05;69.11;101330.88;1636136;85;21025;-56
2021/10/20 02:50:15;;;;;;;48.10;32.67;;;;;;;2.01;69.28;101326.79;1648758;85;21163;-58
2021/10/20 02:52:41;;;;;;;54.67;35.15;;;;;;;2.14;69.08;101341.23;1631236;85;21066;-57
2021/10/20 02:55:08;;;;;;;52.62;32.03;;;;;;;2.17;69.10;101345.42;1646279;85;21049;-60
2021/10/20 02:57:34;;;;;;;49.15;33.65;;;;;;;2.21;69.00;101353.00;1636906;85;21034;-59
2021/10/20 03:00:01;;;;;;;45.88;33.95;;;;;;;2.23;68.78;101352.90;1639538;85;21053;-58
2021/10/20 03:02:27;;;;;;;61.00;33.15;;;;;;;2.23;68.59;101352.90;1667569;83;21049;-57
2021/10/20 03:04:53;;;;;;;48.95;32.08;;;;;;;2.26;68.50;101352.66;1669084;83;21085;-57
2021/10/20 03:07:20;;;;;;;54.98;34.88;;;;;;;2.27;68.41;101349.09;1670602;84;21330;-57
2021/10/20 03:09:47;;;;;;;58.83;34.20;;;;;;;2.34;68.22;101346.39;1667876;83;21394;-59
2021/10/20 03:12:13;;;;;;;52.10;32.38;;;;;;;2.36;68.07;101344.49;1671516;83;22333;-58
2021/10/20 03:14:41;;;;;;;51.80;35.53;;;;;;;2.42;67.82;101346.67;1654590;84;21078;-58
2021/10/20 03:17:07;;;;;;;54.20;34.80;;;;;;;2.42;67.90;101344.53;1670254;84;21878;-58
2021/10/20 03:19:33;;;;;;;54.60;36.75;;;;;;;2.41;68.11;101338.88;1667656;84;21045;-57
2021/10/20 03:21:59;;;;;;;53.78;33.85;;;;;;;2.38;68.16;101338.64;1658389;84;21046;-59
2021/10/20 03:24:25;;;;;;;53.02;33.40;;;;;;;2.37;68.29;101346.16;1713659;82;21009;-57
2021/10/20 03:26:52;;;;;;;55.53;34.73;;;;;;;2.37;68.31;101340.06;1716596;82;21037;-56
2021/10/20 03:29:18;;;;;;;54.08;34.58;;;;;;;2.31;68.34;101330.81;1707691;82;21901;-61
2021/10/20 03:31:45;;;;;;;51.23;33.27;;;;;;;2.29;68.47;101332.72;1699862;82;21139;-61
2021/10/20 03:34:11;;;;;;;64.67;38.25;;;;;;;2.36;68.16;101335.28;1690486;83;21143;-57
2021/10/20 03:36:39;;;;;;;52.50;33.33;;;;;;;2.39;67.99;101333.73;1688451;84;21243;-56
2021/10/20 03:39:05;;;;;;;54.00;36.25;;;;;;;2.39;67.94;101326.31;1690279;84;21050;-57
2021/10/20 03:41:31;;;;;;;61.42;36.48;;;;;;;2.35;68.16;101320.43;1690168;84;21024;-58
2021/10/20 03:43:57;;;;;;;56.68;35.20;;;;;;;2.36;68.11;101318.18;1687768;84;21135;-59
2021/10/20 03:46:23;;;;;;;48.98;32.53;;;;;;;1.81;67.87;101224.82;1688392;84;21220;-58
2021/10/20 03:48:49;;;;;;;55.28;32.70;;;;;;;2.45;67.76;101321.91;1689753;84;21112;-57
2021/10/20 03:51:15;;;;;;;48.45;30.15;;;;;;;2.47;67.64;101316.92;1692312;84;21376;-59
2021/10/20 03:53:41;;;;;;;43.33;27.50;;;;;;;2.53;67.20;101315.16;1690803;84;21873;-58
2021/10/20 03:56:08;;;;;;;45.07;27.20;;;;;;;2.59;66.81;101314.35;1690887;84;20988;-58
2021/10/20 03:58:34;;;;;;;40.20;25.75;;;;;;;2.67;66.49;101310.67;1690389;84;21171;-58
2021/10/20 04:01:00;;;;;;;38.00;25.60;;;;;;;2.75;66.00;101316.67;1690892;84;21666;-58
2021/10/20 04:03:27;;;;;;;37.98;25.82;;;;;;;2.80;65.22;101321.97;1687639;84;21250;-58
2021/10/20 04:05:53;;;;;;;33.67;22.65;;;;;;;2.88;64.91;101330.16;1688780;84;21084;-58
2021/10/20 04:08:20;;;;;;;30.23;21.33;;;;;;;2.93;64.68;101324.05;1664254;84;21068;-55
2021/10/20 04:10:46;;;;;;;32.28;21.55;;;;;;;3.00;64.17;101319.66;1664304;84;21046;-59
2021/10/20 04:13:12;;;;;;;31.25;20.57;;;;;;;3.07;63.57;101317.77;1665056;84;21316;-59
2021/10/20 04:15:39;;;;;;;30.88;20.05;;;;;;;3.11;63.14;101310.48;1664202;84;21166;-58
2021/10/20 04:18:05;;;;;;;33.58;23.22;;;;;;;3.19;63.08;101309.41;1664936;84;21047;-57
2021/10/20 04:20:32;;;;;;;29.00;20.33;;;;;;;3.24;62.73;101299.37;1664766;84;21081;-59
2021/10/20 04:22:59;;;;;;;32.63;20.65;;;;;;;3.27;62.27;101293.84;1663570;83;21753;-58
2021/10/20 04:25:25;;;;;;;29.18;18.45;;;;;;;3.35;61.86;101285.34;1689795;84;21303;-61
2021/10/20 04:27:52;;;;;;;25.57;17.17;;;;;;;3.38;61.32;101289.08;1691412;84;21044;-60
2021/10/20 04:30:20;;;;;;;30.57;18.17;;;;;;;3.37;60.84;101283.91;1664731;84;21050;-58
2021/10/20 04:32:47;;;;;;;24.87;18.53;;;;;;;3.49;60.50;101294.84;1644962;85;21874;-59
2021/10/20 04:35:14;;;;;;;33.42;18.27;;;;;;;3.53;60.64;101288.37;1645726;85;21133;-56
2021/10/20 04:37:40;;;;;;;25.13;15.67;;;;;;;3.55;60.15;101288.25;1646149;85;21219;-59
2021/10/20 04:40:09;;;;;;;23.73;15.72;;;;;;;3.55;59.97;101282.49;1646890;85;21477;-59
2021/10/20 04:42:35;;;;;;;22.07;16.50;;;;;;;3.58;60.08;101289.31;1643334;85;21349;-61
2021/10/20 04:45:02;;;;;;;27.50;16.55;;;;;;;3.62;59.96;101294.73;1644948;85;21717;-57
2021/10/20 04:47:29;;;;;;;23.43;15.07;;;;;;;3.63;59.82;101296.39;1646548;85;21048;-59
2021/10/20 04:49:55;;;;;;;22.30;14.40;;;;;;;3.65;59.68;101297.11;1645818;85;22266;-58
2021/10/20 04:52:23;;;;;;;21.97;14.73;;;;;;;3.67;59.45;101294.73;1645832;85;21907;-60
2021/10/20 04:54:50;;;;;;;21.73;13.73;;;;;;;3.70;59.41;101294.47;1646376;85;21023;-59
2021/10/20 04:57:17;;;;;;;27.73;14.43;;;;;;;3.75;59.33;101293.27;1646348;85;21032;-57
2021/10/20 04:59:45;;;;;;;23.53;14.53;;;;;;;3.80;59.07;101297.22;1646451;85;21064;-59
2021/10/20 05:02:13;;;;;;;23.87;15.03;;;;;;;3.87;58.94;101294.95;1646064;85;21310;-58
2021/10/20 05:04:39;;;;;;;21.07;13.50;;;;;;;3.90;58.50;101298.68;1646467;85;21343;-56
2021/10/20 05:07:05;;;;;;;20.82;14.23;;;;;;;3.92;58.62;101291.48;1645161;85;21890;-60
2021/10/20 05:09:31;;;;;;;19.57;13.10;;;;;;;3.93;58.57;101283.91;1645989;85;21032;-61
2021/10/20 05:11:57;;;;;;;19.85;13.68;;;;;;;3.94;58.05;101279.46;1646191;85;21149;-57
2021/10/20 05:14:25;;;;;;;18.60;12.13;;;;;;;3.91;57.89;101275.28;1645960;85;21924;-59
2021/10/20 05:16:51;;;;;;;20.90;11.97;;;;;;;3.89;57.83;101265.34;1646438;85;21017;-63
2021/10/20 05:19:17;;;;;;;22.80;13.00;;;;;;;3.88;57.86;101270.23;1647245;85;21250;-60
2021/10/20 05:21:43;;;;;;;14.60;11.48;;;;;;;3.88;57.97;101265.83;1646633;85;21217;-60
2021/10/20 05:24:09;;;;;;;14.43;11.78;;;;;;;3.91;57.74;101267.37;1644710;85;21948;-59
2021/10/20 05:26:36;;;;;;;15.83;10.58;;;;;;;3.92;57.60;101257.19;1645884;85;21076;-61
2021/10/20 05:29:02;;;;;;;23.77;12.58;;;;;;;3.92;57.60;101257.19;1646593;85;21115;-59
2021/10/20 05:31:29;;;;;;;;;;;;;;;3.94;57.77;101263.64;1649372;85;21135;-57
2021/10/20 05:33:55;;;;;;;17.40;12.03;;;;;;;3.95;57.88;101259.56;1644907;85;20229;-58
2021/10/20 05:36:23;;;;;;;19.80;13.53;;;;;;;3.93;58.25;101256.70;1646671;85;21044;-58
2021/10/20 05:38:49;;;;;;;19.63;13.43;;;;;;;3.93;58.46;101255.38;1646017;85;21095;-57
2021/10/20 05:41:15;;;;;;;;;;;;;;;3.96;58.63;101254.66;1648535;85;21106;-59
2021/10/20 05:43:42;;;;;;;31.27;12.90;;;;;;;3.96;58.84;101250.70;1646720;85;20170;-59
2021/10/20 05:46:09;;;;;;;17.37;12.23;;;;;;;3.94;58.89;101263.64;1646135;85;21052;-60
2021/10/20 05:48:36;;;;;;;19.90;13.83;;;;;;;3.96;58.90;101248.06;1645370;85;21037;-60
2021/10/20 05:51:02;;;;;;;17.32;13.25;;;;;;;4.06;58.89;101242.88;1643963;85;21395;-61
2021/10/20 05:53:28;;;;;;;19.12;13.10;;;;;;;4.07;58.72;101232.21;1645772;85;21856;-60
2021/10/20 05:55:55;;;;;;;21.87;13.80;;;;;;;4.40;58.36;101241.45;1645551;85;21273;-62
2021/10/20 05:58:22;;;;;;;20.77;12.50;;;;;;;4.67;57.63;101245.79;1645681;85;21080;-60
2021/10/20 06:00:48;;;;;;;20.75;13.83;;;;;;;4.95;57.26;101239.98;1645879;85;20993;-59
2021/10/20 06:03:14;;;;;;;19.60;12.75;;;;;;;5.18;56.50;101239.34;1646566;85;21024;-61
2021/10/20 06:05:40;;;;;;;17.80;11.60;;;;;;;5.33;56.03;101233.23;1646359;85;21279;-61
2021/10/20 06:08:08;;;;;;;20.87;12.77;;;;;;;5.36;55.34;101227.69;1646331;85;21888;-60
2021/10/20 06:10:35;;;;;;;18.50;12.43;;;;;;;5.38;55.07;101229.71;1645056;85;21103;-60
2021/10/20 06:13:01;;;;;;;19.67;12.18;;;;;;;5.36;54.86;101218.44;1646377;85;21389;-62
2021/10/20 06:15:27;;;;;;;19.50;11.70;;;;;;;5.36;54.80;101211.83;1646690;85;21044;-58
2021/10/20 06:17:53;;;;;;;17.85;12.70;;;;;;;5.42;54.66;101216.57;1644988;85;21052;-60
2021/10/20 06:20:19;;;;;;;19.48;11.70;;;;;;;5.52;54.50;101220.57;1645762;85;21671;-61
2021/10/20 06:22:47;;;;;;;17.95;11.50;;;;;;;5.57;54.12;101208.62;1623491;87;21100;-59
2021/10/20 06:25:13;;;;;;;14.47;11.57;;;;;;;5.57;53.90;101213.08;1646109;85;21052;-62
2021/10/20 06:27:41;;;;;;;17.77;12.95;;;;;;;5.54;54.18;101205.41;1645866;85;21092;-58
2021/10/20 06:30:09;;;;;;;19.27;11.87;;;;;;;5.53;54.34;101217.80;1645778;85;21688;-60
2021/10/20 06:32:35;;;;;;;16.90;12.37;;;;;;;5.53;54.47;101207.72;1645589;85;21065;-60
2021/10/20 06:35:02;;;;;;;18.85;12.45;;;;;;;5.53;54.43;101196.64;1646920;85;21100;-60
2021/10/20 06:37:30;;;;;;;23.13;12.60;;;;;;;5.57;54.44;101212.59;1645422;85;21064;-61
2021/10/20 06:40:00;;;;;;;20.13;13.07;;;;;;;5.59;54.42;101208.49;1646654;85;21373;-59
2021/10/20 06:42:24;;;;;;;20.53;14.00;;;;;;;5.61;54.63;101202.12;1645623;85;21186;-60
2021/10/20 06:44:50;;;;;;;23.50;14.03;;;;;;;5.68;54.77;101200.25;1645760;85;21049;-59
2021/10/20 06:47:16;;;;;;;26.85;13.88;;;;;;;5.74;54.92;101201.02;1646614;85;21112;-60
2021/10/20 06:49:42;;;;;;;18.50;12.43;;;;;;;5.81;54.70;101186.28;1646334;85;21072;-58
2021/10/20 06:52:08;;;;;;;21.33;13.65;;;;;;;5.84;54.79;101182.05;1645929;85;21036;-58
2021/10/20 06:54:34;;;;;;;21.97;12.98;;;;;;;5.88;54.92;101187.41;1646207;85;21064;-60
2021/10/20 06:57:00;;;;;;;20.70;13.70;;;;;;;5.93;54.93;101187.81;1646382;85;21032;-62
2021/10/20 06:59:26;;;;;;;19.00;12.93;;;;;;;6.05;54.79;101184.61;1645737;85;21471;-60
2021/10/20 07:01:52;;;;;;;20.10;13.85;;;;;;;5.57;54.37;101085.64;1646678;85;21127;-59
2021/10/20 07:04:19;;;;;;;18.60;13.30;;;;;;;6.29;54.42;101169.65;1646115;85;21825;-59
2021/10/20 07:06:49;;;;;;;22.77;14.13;;;;;;;6.37;53.93;101176.39;1645578;85;21766;-60
2021/10/20 07:09:15;;;;;;;17.30;13.10;;;;;;;6.47;53.91;101172.91;1645149;85;21412;-65
2021/10/20 07:11:43;;;;;;;23.43;13.03;;;;;;;6.58;53.69;101170.92;1646439;85;21120;-59
2021/10/20 07:14:09;;;;;;;20.17;12.95;;;;;;;6.72;53.51;101169.64;1645264;85;21060;-59
2021/10/20 07:16:36;;;;;;;22.27;12.65;;;;;;;6.82;53.44;101166.49;1690271;84;21036;-60
2021/10/20 07:19:06;;;;;;;17.00;11.73;;;;;;;6.91;53.15;101164.80;1690544;84;21362;-61
2021/10/20 07:21:32;;;;;;;21.63;12.20;;;;;;;7.00;52.92;101167.89;1690419;84;21124;-60
2021/10/20 07:23:58;;;;;;;18.03;12.43;;;;;;;7.10;52.81;101158.60;1687114;81;21096;-59
2021/10/20 07:26:24;;;;;;;13.85;11.30;;;;;;;7.22;52.91;101157.92;1687479;84;21870;-62
2021/10/20 07:28:50;;;;;;;17.85;11.88;;;;;;;7.36;52.60;101156.09;1688544;84;22263;-58
2021/10/20 07:31:16;;;;;;;19.60;13.75;;;;;;;7.47;52.64;101150.26;1690598;84;21120;-61
2021/10/20 07:33:42;;;;;;;18.67;12.70;;;;;;;7.55;52.53;101152.52;1690998;81;21125;-59
2021/10/20 07:36:09;;;;;;;17.20;11.60;;;;;;;7.57;52.65;101145.25;1688282;84;21065;-60
2021/10/20 07:38:35;;;;;;;;;;;;;;;7.62;52.79;101146.61;1668271;84;21055;-61
2021/10/20 07:41:01;;;;;;;21.77;12.57;;;;;;;7.69;52.92;101149.84;1665092;84;20164;-61
2021/10/20 07:43:33;;;;;;;25.40;12.10;;;;;;;7.68;52.99;101144.18;1664482;84;21853;-60
2021/10/20 07:45:59;;;;;;;20.90;12.83;;;;;;;7.72;53.21;101141.59;1664747;84;21949;-61
2021/10/20 07:48:25;;;;;;;20.75;12.58;;;;;;;7.77;53.32;101128.69;1665000;84;21061;-58
2021/10/20 07:50:51;;;;;;;18.00;11.73;;;;;;;7.87;53.30;101129.94;1690141;84;21032;-58
2021/10/20 07:53:18;;;;;;;15.60;12.03;;;;;;;7.90;53.32;101128.32;1691244;84;21112;-60
2021/10/20 07:55:44;;;;;;;17.20;12.03;;;;;;;7.95;53.36;101132.69;1689991;84;21781;-60
2021/10/20 07:58:10;;;;;;;19.52;11.45;;;;;;;8.01;53.44;101125.94;1664646;84;21034;-60
2021/10/20 08:00:36;;;;;;;21.52;12.50;;;;;;;8.09;53.52;101122.52;1689801;83;21054;-58
2021/10/20 08:03:02;;;;;;;20.68;11.00;;;;;;;8.19;53.40;101124.58;1637206;85;21369;-59
2021/10/20 08:05:29;;;;;;;16.50;11.97;;;;;;;8.24;53.43;101126.30;1638277;85;22461;-61
2021/10/20 08:07:58;;;;;;;17.70;10.70;;;;;;;8.28;53.46;101129.48;1639140;85;21123;-61
2021/10/20 08:10:28;;;;;;;20.00;12.27;;;;;;;8.30;53.60;101127.00;1663776;84;21062;-58
2021/10/20 08:12:58;;;;;;;17.77;11.63;;;;;;;8.39;53.45;101119.44;1689646;83;21087;-62
2021/10/20 08:15:26;;;;;;;18.60;13.07;;;;;;;8.51;53.38;101117.88;1689948;84;21853;-58
2021/10/20 08:17:52;;;;;;;14.50;10.73;;;;;;;8.60;53.30;101117.45;1665045;84;21308;-61
2021/10/20 08:20:22;;;;;;;17.48;12.45;;;;;;;8.68;53.39;101106.86;1691092;84;21059;-61
2021/10/20 08:22:48;;;;;;;20.13;10.93;;;;;;;8.78;53.35;101100.96;1691219;84;21035;-59
2021/10/20 08:25:15;;;;;;;16.45;12.25;;;;;;;8.90;53.15;101085.56;1692136;84;21041;-60
2021/10/20 08:27:43;;;;;;;14.70;11.50;;;;;;;8.99;53.16;101087.27;1637732;85;21072;-59
2021/10/20 08:30:20;;;;;;;17.12;10.45;;;;;;;9.08;53.20;101086.78;1663285;84;21351;-59
2021/10/20 08:32:52;;;;;;;15.63;11.20;;;;;;;9.18;53.48;101076.05;1664429;84;21215;-60
2021/10/20 08:35:19;;;;;;;13.87;10.63;;;;;;;9.32;53.24;101063.43;1624789;86;21293;-61
2021/10/20 08:37:54;;;;;;;15.48;10.90;;;;;;;9.45;53.08;101068.30;1602198;88;21017;-60
2021/10/20 08:40:17;;;;;;;12.23;10.57;;;;;;;9.61;52.86;101066.17;1655999;84;21044;-61
2021/10/20 08:42:45;;;;;;;14.78;11.05;;;;;;;9.79;52.74;101066.02;1652635;84;21386;-60
2021/10/20 08:45:11;;;;;;;16.87;11.57;;;;;;;9.97;52.30;101064.54;1645238;85;21162;-62
2021/10/20 08:47:39;;;;;;;15.17;11.60;;;;;;;10.12;52.43;101053.03;1618778;87;21364;-61
2021/10/20 08:50:08;;;;;;;27.90;12.07;;;;;;;10.26;52.25;101055.50;1620701;87;21079;-60
2021/10/20 08:52:35;;;;;;;13.40;11.70;;;;;;;10.39;52.19;101053.69;1609534;88;21040;-60
2021/10/20 08:55:01;;;;;;;15.85;10.95;;;;;;;10.53;52.32;101052.17;1627974;86;21145;-61
2021/10/20 08:57:28;;;;;;;15.60;10.70;;;;;;;10.62;52.48;101047.13;1623729;86;21328;-59
2021/10/20 08:59:54;;;;;;;;;;;;;;;10.73;52.50;101041.94;1625343;86;21843;-59
2021/10/20 09:02:22;;;;;;;16.33;10.97;;;;;;;10.86;52.51;101028.06;1632638;86;20443;-58
2021/10/20 09:04:55;;;;;;;18.10;11.60;;;;;;;10.98;53.01;101023.16;1644003;86;21066;-58
2021/10/20 09:07:21;;;;;;;15.33;11.97;;;;;;;11.14;53.64;101008.92;1643346;86;21096;-64
2021/10/20 09:09:53;;;;;;;19.25;12.53;;;;;;;11.16;53.61;100990.39;1628029;85;21054;-60
2021/10/20 09:12:30;;;;;;;16.43;13.53;;;;;;;11.46;54.61;101000.70;1681047;83;21097;-59
2021/10/20 09:15:02;;;;;;;14.05;11.93;;;;;;;11.60;55.85;100987.58;1664885;84;21088;-63
2021/10/20 09:17:51;;;;;;;19.90;13.37;;;;;;;11.71;55.78;100985.82;1683587;83;21117;-60
2021/10/20 09:20:26;;;;;;;17.27;13.13;;;;;;;11.82;56.37;100980.05;1685124;83;21323;-58
2021/10/20 09:23:15;;;;;;;20.27;15.72;;;;;;;11.87;56.52;100961.64;1693481;81;21262;-60
2021/10/20 09:25:56;;;;;;;20.97;14.13;;;;;;;12.05;56.54;100972.03;1668479;83;21231;-60
2021/10/20 09:28:25;;;;;;;19.27;13.73;;;;;;;12.18;56.60;100975.90;1670213;83;21947;-59
2021/10/20 09:30:57;;;;;;;20.57;14.98;;;;;;;12.24;56.74;100973.34;1674507;83;21069;-60
2021/10/20 09:33:24;;;;;;;21.43;14.97;;;;;;;12.19;56.68;100953.00;1686872;83;21140;-62
2021/10/20 09:35:51;;;;;;;18.57;14.45;;;;;;;12.38;56.60;100956.14;1668432;83;21112;-61
2021/10/20 09:38:17;;;;;;;23.02;15.23;;;;;;;12.41;56.66;100965.97;1687570;83;20978;-60
2021/10/20 09:40:49;;;;;;;18.62;15.10;;;;;;;12.44;56.71;100958.89;1672292;83;21076;-59
2021/10/20 09:43:18;;;;;;;21.55;15.25;;;;;;;12.47;56.71;100956.38;1667196;83;21088;-61
2021/10/20 09:45:47;;;;;;;19.12;15.70;;;;;;;12.55;56.54;100959.45;1670315;83;21064;-60
2021/10/20 09:48:21;;;;;;;22.27;15.63;;;;;;;12.56;56.49;100964.59;1673275;84;21054;-61
2021/10/20 09:51:06;;;;;;;22.48;15.48;;;;;;;12.61;56.44;100952.83;1676035;83;21116;-61
2021/10/20 09:53:36;;;;;;;20.95;15.48;;;;;;;12.59;56.64;100946.84;1680335;83;21101;-61
2021/10/20 09:56:20;;;;;;;20.27;16.23;;;;;;;12.62;56.75;100952.31;1677670;83;21068;-58
2021/10/20 09:58:49;;;;;;;18.92;15.58;;;;;;;12.64;56.73;100948.46;1666008;83;21790;-61
2021/10/20 10:01:18;;;;;;;21.60;16.07;;;;;;;12.72;56.60;100939.50;1675334;83;21055;-59
2021/10/20 10:03:44;;;;;;;23.27;17.77;;;;;;;12.82;56.35;100941.87;1673577;85;21371;-61
2021/10/20 10:06:10;;;;;;;22.70;16.40;;;;;;;12.92;56.03;100927.70;1613131;87;21128;-60
2021/10/20 10:08:37;;;;;;;;;;;;;;;12.96;55.80;100906.22;1608441;87;21875;-60
2021/10/20 10:11:03;;;;;;;22.13;16.85;;;;;;;13.07;55.69;100916.91;1658401;86;20249;-62
2021/10/20 10:13:35;;;;;;;23.05;15.98;;;;;;;12.98;55.94;100910.88;1646909;85;21411;-61
2021/10/20 10:16:04;;;;;;;24.92;16.02;;;;;;;13.01;56.00;100912.33;1638309;85;21065;-58
2021/10/20 10:18:30;;;;;;;25.12;16.32;;;;;;;13.09;55.84;100906.88;1667459;84;21826;-60
2021/10/20 10:20:56;;;;;;;;;;;;;;;13.18;55.67;100899.01;1663642;83;21969;-60
2021/10/20 10:23:27;;;;;;;21.93;15.80;;;;;;;13.25;55.63;100889.20;1646829;83;20154;-62
2021/10/20 10:26:00;;;;;;;23.92;16.32;;;;;;;13.31;55.42;100877.44;1655553;83;21394;-61
2021/10/20 10:28:34;;;;;;;19.42;13.85;;;;;;;13.35;55.43;100886.22;1623142;85;21107;-61
2021/10/20 10:31:07;;;;;;;18.20;14.70;;;;;;;13.41;55.50;100870.73;1633578;85;21053;-64
2021/10/20 10:33:39;;;;;;;24.12;15.50;;;;;;;13.50;55.41;100876.76;1659665;84;21041;-61
2021/10/20 10:36:23;;;;;;;24.30;15.10;;;;;;;13.58;55.36;100872.62;1676536;83;21048;-61
2021/10/20 10:39:04;;;;;;;26.23;15.00;;;;;;;13.66;55.21;100866.28;1633238;85;20989;-62
2021/10/20 10:41:38;;;;;;;24.23;15.28;;;;;;;13.73;55.12;100871.67;1675983;84;21057;-59
2021/10/20 10:44:12;;;;;;;21.77;15.20;;;;;;;13.77;54.96;100875.11;1636005;82;21314;-62
2021/10/20 10:46:55;;;;;;;15.05;12.88;;;;;;;13.75;54.88;100871.81;1682725;83;21057;-61
2021/10/20 10:49:39;;;;;;;19.65;14.55;;;;;;;13.79;54.74;100859.67;1636371;85;21068;-62
2021/10/20 10:52:32;;;;;;;21.97;12.37;;;;;;;13.80;54.72;100854.61;1674385;84;21832;-58
2021/10/20 10:55:17;;;;;;;16.15;12.33;;;;;;;13.81;54.43;100848.23;1644554;85;22361;-61
2021/10/20 10:58:17;;;;;;;26.35;13.15;;;;;;;13.85;54.43;100843.84;1606677;87;21086;-61
2021/10/20 11:00:47;;;;;;;21.45;13.55;;;;;;;13.91;54.31;100845.20;1641032;84;21100;-60
2021/10/20 11:03:17;;;;;;;17.77;13.58;;;;;;;13.93;54.20;100842.33;1677523;83;21214;-60
2021/10/20 11:05:57;;;;;;;19.32;12.75;;;;;;;13.96;54.21;100827.20;1662312;84;21013;-61
2021/10/20 11:08:25;;;;;;;16.25;12.60;;;;;;;14.00;53.92;100823.91;1637051;85;21112;-62
2021/10/20 11:10:54;;;;;;;14.58;12.95;;;;;;;14.03;53.89;100821.33;1664138;83;21109;-60
2021/10/20 11:13:20;;;;;;;21.30;13.03;;;;;;;14.09;53.66;100811.17;1677489;83;21020;-63
2021/10/20 11:15:47;;;;;;;;;;;;;;;14.16;53.56;100805.83;1668402;83;21079;-63
2021/10/20 11:18:15;;;;;;;17.62;12.20;;;;;;;14.22;53.57;100800.99;1650443;85;20145;-61
2021/10/20 11:20:43;;;;;;;17.10;12.20;;;;;;;14.26;53.07;100798.25;1673483;83;21055;-58
2021/10/20 11:23:14;;;;;;;22.65;13.60;;;;;;;14.34;53.13;100796.71;1663865;84;21005;-61